sensor_id;sensor_type;location;lat;lon;timestamp;P1;durP1;ratioP1;P2;durP2;ratioP2
13580;SDS011;6861;46.170;7.222;2023-03-31T00:01:07;7.35;;;3.30;;
13580;SDS011;6861;46.170;7.222;2023-03-31T00:03:35;5.88;;;3.10;;
13580;SDS011;6861;46.170;7.222;2023-03-31T00:06:10;5.93;;;3.35;;
13580;SDS011;6861;46.170;7.222;2023-03-31T00:08:46;7.10;;;3.00;;
13580;SDS011;6861;46.170;7.222;2023-03-31T00:11:17;7.90;;;3.55;;
13580;SDS011;6861;46.170;7.222;2023-03-31T00:13:46;9.32;;;3.67;;
13580;SDS011;6861;46.170;7.222;2023-03-31T00:16:14;7.28;;;3.55;;
13580;SDS011;6861;46.170;7.222;2023-03-31T00:18:43;5.97;;;3.45;;
13580;SDS011;6861;46.170;7.222;2023-03-31T00:21:14;5.75;;;3.63;;
13580;SDS011;6861;46.170;7.222;2023-03-31T00:23:53;8.90;;;3.65;;
13580;SDS011;6861;46.170;7.222;2023-03-31T00:26:23;7.43;;;3.70;;
13580;SDS011;6861;46.170;7.222;2023-03-31T00:28:51;8.07;;;3.72;;
13580;SDS011;6861;46.170;7.222;2023-03-31T00:31:20;7.47;;;3.70;;
13580;SDS011;6861;46.170;7.222;2023-03-31T00:33:48;8.10;;;3.70;;
13580;SDS011;6861;46.170;7.222;2023-03-31T00:36:17;7.28;;;3.65;;
13580;SDS011;6861;46.170;7.222;2023-03-31T00:38:54;7.18;;;3.50;;
13580;SDS011;6861;46.170;7.222;2023-03-31T00:41:24;7.85;;;3.70;;
13580;SDS011;6861;46.170;7.222;2023-03-31T00:46:50;5.03;;;3.38;;
13580;SDS011;6861;46.170;7.222;2023-03-31T00:49:22;6.32;;;3.50;;
13580;SDS011;6861;46.170;7.222;2023-03-31T00:51:54;8.52;;;3.83;;
13580;SDS011;6861;46.170;7.222;2023-03-31T00:54:29;5.82;;;3.60;;
13580;SDS011;6861;46.170;7.222;2023-03-31T00:56:59;6.13;;;3.50;;
13580;SDS011;6861;46.170;7.222;2023-03-31T00:59:29;8.82;;;3.95;;
13580;SDS011;6861;46.170;7.222;2023-03-31T01:02:00;7.68;;;3.75;;
13580;SDS011;6861;46.170;7.222;2023-03-31T01:04:30;7.15;;;3.65;;
13580;SDS011;6861;46.170;7.222;2023-03-31T01:07:02;6.55;;;3.28;;
13580;SDS011;6861;46.170;7.222;2023-03-31T01:09:39;9.80;;;4.10;;
13580;SDS011;6861;46.170;7.222;2023-03-31T01:12:07;5.28;;;2.95;;
13580;SDS011;6861;46.170;7.222;2023-03-31T01:14:37;8.13;;;3.83;;
13580;SDS011;6861;46.170;7.222;2023-03-31T01:17:05;6.47;;;3.55;;
13580;SDS011;6861;46.170;7.222;2023-03-31T01:19:39;6.00;;;3.20;;
13580;SDS011;6861;46.170;7.222;2023-03-31T01:28:57;5.47;;;2.72;;
13580;SDS011;6861;46.170;7.222;2023-03-31T01:37:38;7.88;;;3.17;;
13580;SDS011;6861;46.170;7.222;2023-03-31T01:40:33;4.75;;;2.65;;
13580;SDS011;6861;46.170;7.222;2023-03-31T01:43:09;5.90;;;3.10;;
13580;SDS011;6861;46.170;7.222;2023-03-31T01:45:47;6.32;;;2.92;;
13580;SDS011;6861;46.170;7.222;2023-03-31T01:48:26;7.93;;;3.10;;
13580;SDS011;6861;46.170;7.222;2023-03-31T01:51:04;5.55;;;2.75;;
13580;SDS011;6861;46.170;7.222;2023-03-31T01:53:39;4.90;;;2.63;;
13580;SDS011;6861;46.170;7.222;2023-03-31T01:56:17;6.85;;;3.22;;
13580;SDS011;6861;46.170;7.222;2023-03-31T01:58:49;5.95;;;3.05;;
13580;SDS011;6861;46.170;7.222;2023-03-31T02:01:22;7.22;;;3.60;;
13580;SDS011;6861;46.170;7.222;2023-03-31T02:03:57;8.27;;;3.72;;
13580;SDS011;6861;46.170;7.222;2023-03-31T02:06:30;8.55;;;4.28;;
13580;SDS011;6861;46.170;7.222;2023-03-31T02:09:03;8.85;;;3.92;;
13580;SDS011;6861;46.170;7.222;2023-03-31T02:11:37;10.45;;;4.07;;
13580;SDS011;6861;46.170;7.222;2023-03-31T02:14:08;8.43;;;3.80;;
13580;SDS011;6861;46.170;7.222;2023-03-31T02:16:39;9.23;;;3.63;;
13580;SDS011;6861;46.170;7.222;2023-03-31T02:19:13;5.30;;;3.70;;
13580;SDS011;6861;46.170;7.222;2023-03-31T02:21:45;6.00;;;3.75;;
13580;SDS011;6861;46.170;7.222;2023-03-31T02:24:15;7.65;;;3.80;;
13580;SDS011;6861;46.170;7.222;2023-03-31T02:26:48;5.90;;;3.70;;
13580;SDS011;6861;46.170;7.222;2023-03-31T02:29:21;6.40;;;3.50;;
13580;SDS011;6861;46.170;7.222;2023-03-31T02:31:52;10.30;;;3.88;;
13580;SDS011;6861;46.170;7.222;2023-03-31T02:34:25;6.60;;;3.30;;
13580;SDS011;6861;46.170;7.222;2023-03-31T02:36:53;9.57;;;3.90;;
13580;SDS011;6861;46.170;7.222;2023-03-31T02:39:23;8.25;;;4.45;;
13580;SDS011;6861;46.170;7.222;2023-03-31T02:41:55;7.20;;;3.78;;
13580;SDS011;6861;46.170;7.222;2023-03-31T02:44:24;9.52;;;3.47;;
13580;SDS011;6861;46.170;7.222;2023-03-31T02:46:52;5.35;;;3.60;;
13580;SDS011;6861;46.170;7.222;2023-03-31T02:49:21;6.90;;;3.55;;
13580;SDS011;6861;46.170;7.222;2023-03-31T02:51:59;6.78;;;3.85;;
13580;SDS011;6861;46.170;7.222;2023-03-31T02:54:59;8.27;;;3.88;;
13580;SDS011;6861;46.170;7.222;2023-03-31T03:00:56;7.53;;;4.18;;
13580;SDS011;6861;46.170;7.222;2023-03-31T03:03:35;8.88;;;4.00;;
13580;SDS011;6861;46.170;7.222;2023-03-31T03:06:16;5.75;;;3.85;;
13580;SDS011;6861;46.170;7.222;2023-03-31T03:09:00;6.88;;;3.60;;
13580;SDS011;6861;46.170;7.222;2023-03-31T03:11:37;9.88;;;4.00;;
13580;SDS011;6861;46.170;7.222;2023-03-31T03:14:16;9.43;;;4.10;;
13580;SDS011;6861;46.170;7.222;2023-03-31T03:16:52;7.47;;;3.83;;
13580;SDS011;6861;46.170;7.222;2023-03-31T03:19:24;7.47;;;4.18;;
13580;SDS011;6861;46.170;7.222;2023-03-31T03:21:52;8.43;;;3.72;;
13580;SDS011;6861;46.170;7.222;2023-03-31T03:24:20;4.72;;;3.72;;
13580;SDS011;6861;46.170;7.222;2023-03-31T03:26:49;7.10;;;3.42;;
13580;SDS011;6861;46.170;7.222;2023-03-31T03:29:18;6.45;;;2.88;;
13580;SDS011;6861;46.170;7.222;2023-03-31T03:31:46;7.03;;;3.45;;
13580;SDS011;6861;46.170;7.222;2023-03-31T03:34:14;6.80;;;3.10;;
13580;SDS011;6861;46.170;7.222;2023-03-31T03:36:44;4.72;;;3.33;;
13580;SDS011;6861;46.170;7.222;2023-03-31T03:39:13;9.32;;;3.47;;
13580;SDS011;6861;46.170;7.222;2023-03-31T03:41:41;8.10;;;3.63;;
13580;SDS011;6861;46.170;7.222;2023-03-31T03:44:09;6.10;;;3.47;;
13580;SDS011;6861;46.170;7.222;2023-03-31T03:46:38;6.45;;;3.30;;
13580;SDS011;6861;46.170;7.222;2023-03-31T03:49:07;6.68;;;3.45;;
13580;SDS011;6861;46.170;7.222;2023-03-31T03:51:35;5.72;;;3.50;;
13580;SDS011;6861;46.170;7.222;2023-03-31T03:54:03;7.35;;;3.70;;
13580;SDS011;6861;46.170;7.222;2023-03-31T03:56:31;8.95;;;3.50;;
13580;SDS011;6861;46.170;7.222;2023-03-31T03:58:59;8.68;;;4.32;;
13580;SDS011;6861;46.170;7.222;2023-03-31T04:01:27;8.15;;;3.63;;
13580;SDS011;6861;46.170;7.222;2023-03-31T04:03:57;6.15;;;4.25;;
13580;SDS011;6861;46.170;7.222;2023-03-31T04:06:25;6.03;;;4.13;;
13580;SDS011;6861;46.170;7.222;2023-03-31T04:08:53;5.88;;;3.58;;
13580;SDS011;6861;46.170;7.222;2023-03-31T04:11:22;7.63;;;4.07;;
13580;SDS011;6861;46.170;7.222;2023-03-31T04:13:50;6.90;;;4.03;;
13580;SDS011;6861;46.170;7.222;2023-03-31T04:16:18;7.20;;;4.38;;
13580;SDS011;6861;46.170;7.222;2023-03-31T04:18:48;6.15;;;3.90;;
13580;SDS011;6861;46.170;7.222;2023-03-31T04:21:19;9.43;;;4.25;;
13580;SDS011;6861;46.170;7.222;2023-03-31T04:23:49;6.70;;;4.47;;
13580;SDS011;6861;46.170;7.222;2023-03-31T04:26:25;6.57;;;4.57;;
13580;SDS011;6861;46.170;7.222;2023-03-31T04:29:04;6.78;;;3.30;;
13580;SDS011;6861;46.170;7.222;2023-03-31T04:31:32;7.88;;;4.25;;
13580;SDS011;6861;46.170;7.222;2023-03-31T04:34:04;4.95;;;3.55;;
13580;SDS011;6861;46.170;7.222;2023-03-31T04:36:40;9.57;;;3.83;;
13580;SDS011;6861;46.170;7.222;2023-03-31T04:39:13;6.25;;;3.65;;
13580;SDS011;6861;46.170;7.222;2023-03-31T04:41:43;6.72;;;3.75;;
13580;SDS011;6861;46.170;7.222;2023-03-31T04:44:11;7.10;;;3.17;;
13580;SDS011;6861;46.170;7.222;2023-03-31T04:46:39;6.57;;;3.65;;
13580;SDS011;6861;46.170;7.222;2023-03-31T04:49:07;7.75;;;3.10;;
13580;SDS011;6861;46.170;7.222;2023-03-31T04:51:35;10.63;;;2.80;;
13580;SDS011;6861;46.170;7.222;2023-03-31T04:54:04;7.30;;;3.28;;
13580;SDS011;6861;46.170;7.222;2023-03-31T04:56:33;7.88;;;3.17;;
13580;SDS011;6861;46.170;7.222;2023-03-31T04:59:01;7.15;;;3.25;;
13580;SDS011;6861;46.170;7.222;2023-03-31T05:01:30;5.45;;;3.70;;
13580;SDS011;6861;46.170;7.222;2023-03-31T05:04:02;5.80;;;3.28;;
13580;SDS011;6861;46.170;7.222;2023-03-31T05:06:31;7.85;;;2.97;;
13580;SDS011;6861;46.170;7.222;2023-03-31T05:08:59;5.18;;;3.20;;
13580;SDS011;6861;46.170;7.222;2023-03-31T05:11:28;6.97;;;3.90;;
13580;SDS011;6861;46.170;7.222;2023-03-31T05:13:57;6.85;;;3.38;;
13580;SDS011;6861;46.170;7.222;2023-03-31T05:16:25;6.43;;;3.42;;
13580;SDS011;6861;46.170;7.222;2023-03-31T05:18:53;9.23;;;4.03;;
13580;SDS011;6861;46.170;7.222;2023-03-31T05:21:21;5.40;;;3.63;;
13580;SDS011;6861;46.170;7.222;2023-03-31T05:23:49;5.50;;;3.00;;
13580;SDS011;6861;46.170;7.222;2023-03-31T05:26:17;4.38;;;2.70;;
13580;SDS011;6861;46.170;7.222;2023-03-31T05:28:49;7.10;;;3.75;;
13580;SDS011;6861;46.170;7.222;2023-03-31T05:31:17;7.45;;;3.22;;
13580;SDS011;6861;46.170;7.222;2023-03-31T05:33:46;6.47;;;3.20;;
13580;SDS011;6861;46.170;7.222;2023-03-31T05:36:15;4.18;;;2.58;;
13580;SDS011;6861;46.170;7.222;2023-03-31T05:38:44;7.10;;;2.97;;
13580;SDS011;6861;46.170;7.222;2023-03-31T05:41:13;6.95;;;3.63;;
13580;SDS011;6861;46.170;7.222;2023-03-31T05:43:42;9.68;;;3.70;;
13580;SDS011;6861;46.170;7.222;2023-03-31T05:46:11;9.38;;;3.72;;
13580;SDS011;6861;46.170;7.222;2023-03-31T05:48:39;7.03;;;4.70;;
13580;SDS011;6861;46.170;7.222;2023-03-31T05:51:07;8.43;;;3.80;;
13580;SDS011;6861;46.170;7.222;2023-03-31T05:53:35;6.95;;;4.00;;
13580;SDS011;6861;46.170;7.222;2023-03-31T05:56:04;6.07;;;3.45;;
13580;SDS011;6861;46.170;7.222;2023-03-31T05:58:33;9.02;;;4.13;;
13580;SDS011;6861;46.170;7.222;2023-03-31T06:01:02;7.10;;;3.42;;
13580;SDS011;6861;46.170;7.222;2023-03-31T06:03:34;8.35;;;3.75;;
13580;SDS011;6861;46.170;7.222;2023-03-31T06:06:04;7.28;;;3.92;;
13580;SDS011;6861;46.170;7.222;2023-03-31T06:08:33;5.97;;;3.65;;
13580;SDS011;6861;46.170;7.222;2023-03-31T06:11:03;7.07;;;3.85;;
13580;SDS011;6861;46.170;7.222;2023-03-31T06:13:33;7.45;;;3.67;;
13580;SDS011;6861;46.170;7.222;2023-03-31T06:16:02;7.75;;;3.88;;
13580;SDS011;6861;46.170;7.222;2023-03-31T06:18:32;9.68;;;3.95;;
13580;SDS011;6861;46.170;7.222;2023-03-31T06:21:03;7.05;;;3.65;;
13580;SDS011;6861;46.170;7.222;2023-03-31T06:23:31;6.45;;;3.30;;
13580;SDS011;6861;46.170;7.222;2023-03-31T06:26:00;6.88;;;3.70;;
13580;SDS011;6861;46.170;7.222;2023-03-31T06:28:29;11.13;;;3.83;;
13580;SDS011;6861;46.170;7.222;2023-03-31T06:31:01;6.30;;;4.05;;
13580;SDS011;6861;46.170;7.222;2023-03-31T06:33:30;12.15;;;9.45;;
13580;SDS011;6861;46.170;7.222;2023-03-31T06:35:59;4.35;;;3.05;;
13580;SDS011;6861;46.170;7.222;2023-03-31T06:38:32;6.75;;;3.20;;
13580;SDS011;6861;46.170;7.222;2023-03-31T06:41:01;5.35;;;2.78;;
13580;SDS011;6861;46.170;7.222;2023-03-31T06:43:30;7.57;;;3.10;;
13580;SDS011;6861;46.170;7.222;2023-03-31T06:45:58;6.18;;;3.55;;
13580;SDS011;6861;46.170;7.222;2023-03-31T06:48:27;7.45;;;3.67;;
13580;SDS011;6861;46.170;7.222;2023-03-31T06:50:57;5.68;;;3.63;;
13580;SDS011;6861;46.170;7.222;2023-03-31T06:53:26;6.28;;;3.78;;
13580;SDS011;6861;46.170;7.222;2023-03-31T06:55:56;6.10;;;3.42;;
13580;SDS011;6861;46.170;7.222;2023-03-31T06:58:24;9.88;;;3.72;;
13580;SDS011;6861;46.170;7.222;2023-03-31T07:00:56;8.88;;;4.10;;
13580;SDS011;6861;46.170;7.222;2023-03-31T07:03:25;9.07;;;3.95;;
13580;SDS011;6861;46.170;7.222;2023-03-31T07:05:55;6.57;;;3.83;;
13580;SDS011;6861;46.170;7.222;2023-03-31T07:08:23;10.43;;;4.18;;
13580;SDS011;6861;46.170;7.222;2023-03-31T07:10:53;8.25;;;4.97;;
13580;SDS011;6861;46.170;7.222;2023-03-31T07:13:24;10.60;;;5.18;;
13580;SDS011;6861;46.170;7.222;2023-03-31T07:15:53;8.38;;;3.88;;
13580;SDS011;6861;46.170;7.222;2023-03-31T07:18:22;6.18;;;3.25;;
13580;SDS011;6861;46.170;7.222;2023-03-31T07:21:00;4.82;;;2.85;;
13580;SDS011;6861;46.170;7.222;2023-03-31T07:23:32;10.85;;;3.13;;
13580;SDS011;6861;46.170;7.222;2023-03-31T07:26:00;5.07;;;2.80;;
13580;SDS011;6861;46.170;7.222;2023-03-31T07:28:30;5.45;;;3.20;;
13580;SDS011;6861;46.170;7.222;2023-03-31T07:30:58;6.60;;;3.17;;
13580;SDS011;6861;46.170;7.222;2023-03-31T07:33:26;3.85;;;3.00;;
13580;SDS011;6861;46.170;7.222;2023-03-31T07:35:54;6.43;;;3.92;;
13580;SDS011;6861;46.170;7.222;2023-03-31T07:38:38;6.93;;;3.78;;
13580;SDS011;6861;46.170;7.222;2023-03-31T07:41:08;4.93;;;3.55;;
13580;SDS011;6861;46.170;7.222;2023-03-31T07:43:39;6.63;;;3.90;;
13580;SDS011;6861;46.170;7.222;2023-03-31T07:46:12;6.78;;;3.47;;
13580;SDS011;6861;46.170;7.222;2023-03-31T07:48:41;8.40;;;3.70;;
13580;SDS011;6861;46.170;7.222;2023-03-31T07:51:09;4.88;;;3.40;;
13580;SDS011;6861;46.170;7.222;2023-03-31T07:53:37;8.10;;;3.65;;
13580;SDS011;6861;46.170;7.222;2023-03-31T07:56:05;7.00;;;3.92;;
13580;SDS011;6861;46.170;7.222;2023-03-31T07:58:34;8.50;;;4.78;;
13580;SDS011;6861;46.170;7.222;2023-03-31T08:01:03;10.85;;;3.83;;
13580;SDS011;6861;46.170;7.222;2023-03-31T08:03:33;7.78;;;3.67;;
13580;SDS011;6861;46.170;7.222;2023-03-31T08:06:01;8.32;;;3.88;;
13580;SDS011;6861;46.170;7.222;2023-03-31T08:08:30;5.22;;;3.67;;
13580;SDS011;6861;46.170;7.222;2023-03-31T08:10:59;6.38;;;3.72;;
13580;SDS011;6861;46.170;7.222;2023-03-31T08:13:27;4.95;;;2.72;;
13580;SDS011;6861;46.170;7.222;2023-03-31T08:15:55;6.00;;;3.03;;
13580;SDS011;6861;46.170;7.222;2023-03-31T08:18:24;4.65;;;3.38;;
13580;SDS011;6861;46.170;7.222;2023-03-31T08:20:53;5.18;;;2.70;;
13580;SDS011;6861;46.170;7.222;2023-03-31T08:23:21;7.63;;;3.63;;
13580;SDS011;6861;46.170;7.222;2023-03-31T08:25:49;8.23;;;3.58;;
13580;SDS011;6861;46.170;7.222;2023-03-31T08:28:17;4.88;;;3.20;;
13580;SDS011;6861;46.170;7.222;2023-03-31T08:30:45;7.60;;;3.45;;
13580;SDS011;6861;46.170;7.222;2023-03-31T08:33:13;8.60;;;3.90;;
13580;SDS011;6861;46.170;7.222;2023-03-31T08:35:42;6.78;;;4.00;;
13580;SDS011;6861;46.170;7.222;2023-03-31T08:38:10;5.35;;;3.90;;
13580;SDS011;6861;46.170;7.222;2023-03-31T08:40:38;7.40;;;3.53;;
13580;SDS011;6861;46.170;7.222;2023-03-31T08:43:09;8.40;;;4.70;;
13580;SDS011;6861;46.170;7.222;2023-03-31T08:45:44;6.47;;;3.72;;
13580;SDS011;6861;46.170;7.222;2023-03-31T08:48:17;6.88;;;4.35;;
13580;SDS011;6861;46.170;7.222;2023-03-31T08:50:53;6.10;;;4.13;;
13580;SDS011;6861;46.170;7.222;2023-03-31T08:53:27;10.82;;;4.88;;
13580;SDS011;6861;46.170;7.222;2023-03-31T08:55:57;7.22;;;4.70;;
13580;SDS011;6861;46.170;7.222;2023-03-31T08:58:28;9.27;;;4.90;;
13580;SDS011;6861;46.170;7.222;2023-03-31T09:01:06;6.28;;;4.38;;
13580;SDS011;6861;46.170;7.222;2023-03-31T09:03:44;5.53;;;4.35;;
13580;SDS011;6861;46.170;7.222;2023-03-31T09:06:21;6.05;;;4.22;;
13580;SDS011;6861;46.170;7.222;2023-03-31T09:08:54;8.55;;;4.75;;
13580;SDS011;6861;46.170;7.222;2023-03-31T09:11:30;6.18;;;4.28;;
13580;SDS011;6861;46.170;7.222;2023-03-31T09:17:04;7.63;;;4.20;;
13580;SDS011;6861;46.170;7.222;2023-03-31T09:19:40;7.95;;;4.43;;
13580;SDS011;6861;46.170;7.222;2023-03-31T09:22:14;7.07;;;4.68;;
13580;SDS011;6861;46.170;7.222;2023-03-31T09:24:48;7.78;;;4.57;;
13580;SDS011;6861;46.170;7.222;2023-03-31T09:27:21;4.80;;;3.75;;
13580;SDS011;6861;46.170;7.222;2023-03-31T09:29:57;5.40;;;4.70;;
13580;SDS011;6861;46.170;7.222;2023-03-31T09:32:30;5.95;;;4.35;;
13580;SDS011;6861;46.170;7.222;2023-03-31T09:34:59;5.18;;;3.90;;
13580;SDS011;6861;46.170;7.222;2023-03-31T09:37:40;4.50;;;3.60;;
13580;SDS011;6861;46.170;7.222;2023-03-31T09:40:12;5.95;;;4.13;;
13580;SDS011;6861;46.170;7.222;2023-03-31T09:42:43;5.43;;;3.90;;
13580;SDS011;6861;46.170;7.222;2023-03-31T09:45:13;5.95;;;4.10;;
13580;SDS011;6861;46.170;7.222;2023-03-31T09:47:43;6.30;;;3.97;;
13580;SDS011;6861;46.170;7.222;2023-03-31T09:50:13;5.75;;;3.85;;
13580;SDS011;6861;46.170;7.222;2023-03-31T09:52:45;6.57;;;4.07;;
13580;SDS011;6861;46.170;7.222;2023-03-31T09:55:17;4.78;;;3.75;;
13580;SDS011;6861;46.170;7.222;2023-03-31T09:58:05;8.13;;;4.05;;
13580;SDS011;6861;46.170;7.222;2023-03-31T10:00:33;6.32;;;3.88;;
13580;SDS011;6861;46.170;7.222;2023-03-31T10:03:02;6.93;;;4.22;;
13580;SDS011;6861;46.170;7.222;2023-03-31T10:05:33;5.47;;;3.85;;
13580;SDS011;6861;46.170;7.222;2023-03-31T10:08:16;5.00;;;3.88;;
13580;SDS011;6861;46.170;7.222;2023-03-31T10:10:50;4.85;;;3.72;;
13580;SDS011;6861;46.170;7.222;2023-03-31T10:13:19;7.03;;;4.07;;
13580;SDS011;6861;46.170;7.222;2023-03-31T10:15:51;9.77;;;4.55;;
13580;SDS011;6861;46.170;7.222;2023-03-31T10:18:20;7.53;;;4.40;;
13580;SDS011;6861;46.170;7.222;2023-03-31T10:20:58;6.20;;;4.03;;
13580;SDS011;6861;46.170;7.222;2023-03-31T10:23:30;4.15;;;3.75;;
13580;SDS011;6861;46.170;7.222;2023-03-31T10:26:00;6.80;;;3.70;;
13580;SDS011;6861;46.170;7.222;2023-03-31T10:28:30;5.95;;;3.67;;
13580;SDS011;6861;46.170;7.222;2023-03-31T10:31:00;5.43;;;4.20;;
13580;SDS011;6861;46.170;7.222;2023-03-31T10:33:30;4.80;;;3.60;;
13580;SDS011;6861;46.170;7.222;2023-03-31T10:36:01;9.68;;;4.22;;
13580;SDS011;6861;46.170;7.222;2023-03-31T10:38:36;6.60;;;4.20;;
13580;SDS011;6861;46.170;7.222;2023-03-31T10:41:08;6.28;;;4.10;;
13580;SDS011;6861;46.170;7.222;2023-03-31T10:43:37;7.18;;;4.00;;
13580;SDS011;6861;46.170;7.222;2023-03-31T10:46:07;7.00;;;4.10;;
13580;SDS011;6861;46.170;7.222;2023-03-31T10:48:37;5.90;;;3.88;;
13580;SDS011;6861;46.170;7.222;2023-03-31T10:51:10;4.43;;;3.85;;
13580;SDS011;6861;46.170;7.222;2023-03-31T10:53:44;6.70;;;4.25;;
13580;SDS011;6861;46.170;7.222;2023-03-31T10:56:19;5.85;;;4.35;;
13580;SDS011;6861;46.170;7.222;2023-03-31T10:58:57;7.55;;;4.55;;
13580;SDS011;6861;46.170;7.222;2023-03-31T11:01:38;6.28;;;4.20;;
13580;SDS011;6861;46.170;7.222;2023-03-31T11:04:24;5.10;;;4.22;;
13580;SDS011;6861;46.170;7.222;2023-03-31T11:07:06;7.70;;;5.13;;
13580;SDS011;6861;46.170;7.222;2023-03-31T11:09:43;6.57;;;4.93;;
13580;SDS011;6861;46.170;7.222;2023-03-31T11:12:20;6.15;;;4.65;;
13580;SDS011;6861;46.170;7.222;2023-03-31T11:14:58;5.70;;;5.05;;
13580;SDS011;6861;46.170;7.222;2023-03-31T11:17:41;7.75;;;5.47;;
13580;SDS011;6861;46.170;7.222;2023-03-31T11:20:23;7.38;;;5.10;;
13580;SDS011;6861;46.170;7.222;2023-03-31T11:22:58;6.10;;;4.93;;
13580;SDS011;6861;46.170;7.222;2023-03-31T11:25:36;7.40;;;4.68;;
13580;SDS011;6861;46.170;7.222;2023-03-31T11:28:21;10.52;;;5.45;;
13580;SDS011;6861;46.170;7.222;2023-03-31T11:30:57;8.95;;;5.40;;
13580;SDS011;6861;46.170;7.222;2023-03-31T11:33:39;7.75;;;5.40;;
13580;SDS011;6861;46.170;7.222;2023-03-31T11:39:18;4.55;;;3.20;;
13580;SDS011;6861;46.170;7.222;2023-03-31T11:41:58;3.17;;;2.38;;
13580;SDS011;6861;46.170;7.222;2023-03-31T11:44:29;4.93;;;2.58;;
13580;SDS011;6861;46.170;7.222;2023-03-31T11:47:05;4.45;;;3.00;;
13580;SDS011;6861;46.170;7.222;2023-03-31T11:49:38;4.25;;;2.60;;
13580;SDS011;6861;46.170;7.222;2023-03-31T11:52:11;3.10;;;2.33;;
13580;SDS011;6861;46.170;7.222;2023-03-31T11:54:42;3.25;;;2.45;;
13580;SDS011;6861;46.170;7.222;2023-03-31T11:57:20;3.47;;;2.30;;
13580;SDS011;6861;46.170;7.222;2023-03-31T11:59:54;2.85;;;2.30;;
13580;SDS011;6861;46.170;7.222;2023-03-31T12:02:26;4.57;;;2.40;;
13580;SDS011;6861;46.170;7.222;2023-03-31T12:05:03;3.28;;;2.50;;
13580;SDS011;6861;46.170;7.222;2023-03-31T12:07:34;5.82;;;3.17;;
13580;SDS011;6861;46.170;7.222;2023-03-31T12:10:11;7.43;;;3.00;;
13580;SDS011;6861;46.170;7.222;2023-03-31T12:12:48;4.43;;;2.90;;
13580;SDS011;6861;46.170;7.222;2023-03-31T12:15:22;4.68;;;3.50;;
13580;SDS011;6861;46.170;7.222;2023-03-31T12:17:56;5.22;;;3.22;;
13580;SDS011;6861;46.170;7.222;2023-03-31T12:20:29;9.18;;;5.78;;
13580;SDS011;6861;46.170;7.222;2023-03-31T12:23:00;8.40;;;5.50;;
13580;SDS011;6861;46.170;7.222;2023-03-31T12:25:37;6.03;;;4.40;;
13580;SDS011;6861;46.170;7.222;2023-03-31T12:28:14;6.40;;;4.07;;
13580;SDS011;6861;46.170;7.222;2023-03-31T12:30:44;11.38;;;4.00;;
13580;SDS011;6861;46.170;7.222;2023-03-31T12:33:15;9.35;;;4.63;;
13580;SDS011;6861;46.170;7.222;2023-03-31T12:35:54;7.38;;;4.97;;
13580;SDS011;6861;46.170;7.222;2023-03-31T12:38:40;5.13;;;4.50;;
13580;SDS011;6861;46.170;7.222;2023-03-31T12:41:19;5.97;;;4.00;;
13580;SDS011;6861;46.170;7.222;2023-03-31T12:46:52;5.50;;;4.05;;
13580;SDS011;6861;46.170;7.222;2023-03-31T12:49:44;4.95;;;4.13;;
13580;SDS011;6861;46.170;7.222;2023-03-31T12:52:22;6.25;;;4.07;;
13580;SDS011;6861;46.170;7.222;2023-03-31T13:01:09;6.55;;;4.85;;
13580;SDS011;6861;46.170;7.222;2023-03-31T13:03:45;6.95;;;4.65;;
13580;SDS011;6861;46.170;7.222;2023-03-31T13:12:07;5.13;;;3.90;;
13580;SDS011;6861;46.170;7.222;2023-03-31T13:14:41;5.35;;;3.88;;
13580;SDS011;6861;46.170;7.222;2023-03-31T13:17:19;6.97;;;4.90;;
13580;SDS011;6861;46.170;7.222;2023-03-31T13:19:50;6.30;;;4.80;;
13580;SDS011;6861;46.170;7.222;2023-03-31T13:22:30;10.15;;;5.82;;
13580;SDS011;6861;46.170;7.222;2023-03-31T13:28:09;8.77;;;4.32;;
13580;SDS011;6861;46.170;7.222;2023-03-31T13:30:44;5.95;;;4.55;;
13580;SDS011;6861;46.170;7.222;2023-03-31T13:33:23;5.75;;;4.28;;
13580;SDS011;6861;46.170;7.222;2023-03-31T13:35:57;9.43;;;4.68;;
13580;SDS011;6861;46.170;7.222;2023-03-31T13:38:40;10.68;;;5.45;;
13580;SDS011;6861;46.170;7.222;2023-03-31T13:41:22;7.65;;;4.45;;
13580;SDS011;6861;46.170;7.222;2023-03-31T13:44:00;7.07;;;3.97;;
13580;SDS011;6861;46.170;7.222;2023-03-31T13:53:06;3.13;;;2.45;;
13580;SDS011;6861;46.170;7.222;2023-03-31T13:55:53;2.90;;;2.35;;
13580;SDS011;6861;46.170;7.222;2023-03-31T14:05:04;3.70;;;2.60;;
13580;SDS011;6861;46.170;7.222;2023-03-31T14:07:54;4.40;;;2.60;;
13580;SDS011;6861;46.170;7.222;2023-03-31T14:10:25;3.72;;;2.40;;
13580;SDS011;6861;46.170;7.222;2023-03-31T14:13:05;5.22;;;2.65;;
13580;SDS011;6861;46.170;7.222;2023-03-31T14:15:34;3.13;;;1.90;;
13580;SDS011;6861;46.170;7.222;2023-03-31T14:18:04;4.10;;;2.03;;
13580;SDS011;6861;46.170;7.222;2023-03-31T14:20:35;3.75;;;2.00;;
13580;SDS011;6861;46.170;7.222;2023-03-31T14:23:15;3.65;;;2.35;;
13580;SDS011;6861;46.170;7.222;2023-03-31T14:25:55;3.92;;;2.25;;
13580;SDS011;6861;46.170;7.222;2023-03-31T14:28:39;3.15;;;1.70;;
13580;SDS011;6861;46.170;7.222;2023-03-31T14:31:18;4.28;;;2.20;;
13580;SDS011;6861;46.170;7.222;2023-03-31T14:33:59;2.42;;;1.80;;
13580;SDS011;6861;46.170;7.222;2023-03-31T14:36:39;2.85;;;2.00;;
13580;SDS011;6861;46.170;7.222;2023-03-31T14:39:18;3.78;;;1.77;;
13580;SDS011;6861;46.170;7.222;2023-03-31T14:41:50;2.88;;;1.70;;
13580;SDS011;6861;46.170;7.222;2023-03-31T14:44:20;3.17;;;1.73;;
13580;SDS011;6861;46.170;7.222;2023-03-31T14:46:48;2.72;;;1.67;;
13580;SDS011;6861;46.170;7.222;2023-03-31T14:49:19;1.40;;;1.30;;
13580;SDS011;6861;46.170;7.222;2023-03-31T14:51:50;3.25;;;1.33;;
13580;SDS011;6861;46.170;7.222;2023-03-31T14:54:20;2.25;;;1.25;;
13580;SDS011;6861;46.170;7.222;2023-03-31T14:56:49;1.42;;;0.85;;
13580;SDS011;6861;46.170;7.222;2023-03-31T14:59:20;2.90;;;1.10;;
13580;SDS011;6861;46.170;7.222;2023-03-31T15:01:53;1.30;;;0.82;;
13580;SDS011;6861;46.170;7.222;2023-03-31T15:04:25;2.03;;;1.33;;
13580;SDS011;6861;46.170;7.222;2023-03-31T15:07:07;1.90;;;1.30;;
13580;SDS011;6861;46.170;7.222;2023-03-31T15:09:38;2.45;;;1.20;;
13580;SDS011;6861;46.170;7.222;2023-03-31T15:12:09;2.40;;;1.50;;
13580;SDS011;6861;46.170;7.222;2023-03-31T15:14:41;2.40;;;1.65;;
13580;SDS011;6861;46.170;7.222;2023-03-31T15:17:19;2.20;;;1.55;;
13580;SDS011;6861;46.170;7.222;2023-03-31T15:19:55;2.42;;;1.30;;
13580;SDS011;6861;46.170;7.222;2023-03-31T15:22:24;2.83;;;1.40;;
13580;SDS011;6861;46.170;7.222;2023-03-31T15:24:55;2.53;;;1.67;;
13580;SDS011;6861;46.170;7.222;2023-03-31T15:27:28;6.00;;;2.08;;
13580;SDS011;6861;46.170;7.222;2023-03-31T15:30:04;5.38;;;2.00;;
13580;SDS011;6861;46.170;7.222;2023-03-31T15:32:35;6.00;;;2.53;;
13580;SDS011;6861;46.170;7.222;2023-03-31T15:35:05;4.43;;;2.30;;
13580;SDS011;6861;46.170;7.222;2023-03-31T15:37:48;3.70;;;1.63;;
13580;SDS011;6861;46.170;7.222;2023-03-31T15:40:20;4.90;;;2.20;;
13580;SDS011;6861;46.170;7.222;2023-03-31T15:42:52;3.70;;;2.13;;
13580;SDS011;6861;46.170;7.222;2023-03-31T15:45:49;3.63;;;2.20;;
13580;SDS011;6861;46.170;7.222;2023-03-31T15:48:19;3.72;;;2.03;;
13580;SDS011;6861;46.170;7.222;2023-03-31T15:50:50;3.60;;;2.78;;
13580;SDS011;6861;46.170;7.222;2023-03-31T15:53:24;3.45;;;2.58;;
13580;SDS011;6861;46.170;7.222;2023-03-31T15:55:56;3.03;;;1.70;;
13580;SDS011;6861;46.170;7.222;2023-03-31T15:58:46;7.57;;;2.92;;
13580;SDS011;6861;46.170;7.222;2023-03-31T16:01:21;3.83;;;2.60;;
13580;SDS011;6861;46.170;7.222;2023-03-31T16:03:54;4.53;;;2.03;;
13580;SDS011;6861;46.170;7.222;2023-03-31T16:06:28;4.60;;;1.77;;
13580;SDS011;6861;46.170;7.222;2023-03-31T16:09:03;3.05;;;1.60;;
13580;SDS011;6861;46.170;7.222;2023-03-31T16:11:35;2.40;;;1.40;;
13580;SDS011;6861;46.170;7.222;2023-03-31T16:14:09;1.73;;;1.30;;
13580;SDS011;6861;46.170;7.222;2023-03-31T16:16:46;2.40;;;1.20;;
13580;SDS011;6861;46.170;7.222;2023-03-31T16:19:17;1.92;;;1.05;;
13580;SDS011;6861;46.170;7.222;2023-03-31T16:21:52;2.03;;;1.33;;
13580;SDS011;6861;46.170;7.222;2023-03-31T16:24:27;2.70;;;1.10;;
13580;SDS011;6861;46.170;7.222;2023-03-31T16:27:00;1.05;;;0.63;;
13580;SDS011;6861;46.170;7.222;2023-03-31T16:29:32;0.85;;;0.40;;